createdAt,value
2023-05-15T00:01:59.435Z,3.40
2023-05-15T00:04:26.631Z,3.40
2023-05-15T00:06:53.716Z,3.50
2023-05-15T00:09:20.390Z,3.10
2023-05-15T00:11:47.099Z,3.20
2023-05-15T00:14:13.797Z,3.40
2023-05-15T00:16:40.568Z,3.00
2023-05-15T00:19:07.594Z,2.90
2023-05-15T00:21:34.378Z,3.07
2023-05-15T00:24:01.160Z,3.33
2023-05-15T00:26:27.865Z,3.10
2023-05-15T00:28:54.520Z,3.13
2023-05-15T00:31:21.274Z,3.20
2023-05-15T00:33:48.044Z,3.07
2023-05-15T00:36:14.739Z,3.00
2023-05-15T00:38:41.452Z,2.80
2023-05-15T00:41:08.578Z,3.10
2023-05-15T00:43:35.302Z,2.93
2023-05-15T00:46:02.799Z,2.80
2023-05-15T00:48:29.697Z,3.20
2023-05-15T00:50:57.708Z,2.70
2023-05-15T00:53:24.791Z,2.80
2023-05-15T00:55:52.327Z,2.93
2023-05-15T00:58:21.613Z,2.60
2023-05-15T01:00:50.409Z,2.87
2023-05-15T01:03:17.553Z,2.80
2023-05-15T01:05:45.078Z,2.80
2023-05-15T01:08:37.787Z,2.80
2023-05-15T01:11:06.335Z,2.87
2023-05-15T01:13:33.042Z,2.70
2023-05-15T01:15:59.794Z,2.90
2023-05-15T01:18:32.272Z,3.23
2023-05-15T01:21:02.845Z,3.23
2023-05-15T01:23:42.063Z,2.60
2023-05-15T01:26:24.191Z,2.80
2023-05-15T01:29:02.804Z,2.80
2023-05-15T01:31:33.037Z,2.90
2023-05-15T01:34:03.679Z,2.93
2023-05-15T01:36:36.739Z,2.50
2023-05-15T01:39:04.393Z,2.80
2023-05-15T01:41:42.979Z,2.63
2023-05-15T01:44:20.105Z,2.83
2023-05-15T01:46:50.397Z,2.50
2023-05-15T01:49:19.518Z,2.87
2023-05-15T01:51:50.933Z,2.80
2023-05-15T01:54:18.702Z,2.80
2023-05-15T01:56:46.277Z,3.07
2023-05-15T01:59:14.450Z,3.00
2023-05-15T02:01:41.771Z,2.77
2023-05-15T02:04:08.912Z,2.90
2023-05-15T02:06:36.370Z,3.23
2023-05-15T02:09:03.474Z,3.00
2023-05-15T02:11:30.135Z,3.13
2023-05-15T02:13:57.946Z,3.33
2023-05-15T02:16:24.686Z,3.27
2023-05-15T02:18:52.577Z,2.77
2023-05-15T02:21:19.843Z,3.23
2023-05-15T02:23:46.534Z,2.70
2023-05-15T02:26:30.939Z,2.90
2023-05-15T02:29:11.190Z,2.90
2023-05-15T02:32:05.012Z,3.20
2023-05-15T02:34:40.455Z,3.00
2023-05-15T02:37:10.908Z,3.00
2023-05-15T02:39:37.794Z,2.70
2023-05-15T02:42:05.465Z,2.80
2023-05-15T02:44:32.659Z,2.90
2023-05-15T02:46:59.803Z,2.83
2023-05-15T02:49:26.580Z,2.70
2023-05-15T02:51:53.230Z,2.70
2023-05-15T02:54:19.974Z,3.20
2023-05-15T02:56:46.634Z,2.83
2023-05-15T02:59:19.015Z,2.97
2023-05-15T03:01:49.745Z,2.70
2023-05-15T03:04:16.567Z,2.80
2023-05-15T03:06:43.240Z,2.53
2023-05-15T03:09:09.876Z,2.70
2023-05-15T03:11:36.499Z,3.20
2023-05-15T03:14:03.269Z,2.73
2023-05-15T03:16:29.957Z,3.00
2023-05-15T03:18:56.690Z,2.80
2023-05-15T03:21:23.377Z,2.93
2023-05-15T03:23:50.016Z,2.80
2023-05-15T03:26:16.745Z,2.70
2023-05-15T03:28:43.406Z,2.87
2023-05-15T03:31:10.209Z,2.80
2023-05-15T03:33:38.580Z,2.60
2023-05-15T03:36:05.725Z,2.60
2023-05-15T03:38:32.403Z,2.47
2023-05-15T03:40:59.083Z,2.57
2023-05-15T03:43:25.956Z,2.60
2023-05-15T03:45:52.593Z,2.40
2023-05-15T03:48:19.223Z,2.90
2023-05-15T03:50:47.408Z,2.63
2023-05-15T03:53:14.160Z,2.80
2023-05-15T03:55:41.216Z,2.60
2023-05-15T03:58:07.857Z,3.10
2023-05-15T04:00:34.605Z,3.10
2023-05-15T04:03:01.792Z,2.53
2023-05-15T04:05:28.830Z,2.90
2023-05-15T04:07:55.683Z,2.83
2023-05-15T04:10:22.316Z,2.80
2023-05-15T04:12:49.078Z,2.53
2023-05-15T04:15:21.674Z,2.90
2023-05-15T04:17:50.595Z,2.80
2023-05-15T04:20:19.154Z,2.73
2023-05-15T04:22:46.084Z,2.50
2023-05-15T04:25:14.779Z,2.50
2023-05-15T04:27:42.075Z,2.53
2023-05-15T04:30:09.117Z,2.87
2023-05-15T04:32:36.052Z,2.80
2023-05-15T04:35:05.506Z,2.70
2023-05-15T04:37:32.425Z,3.10
2023-05-15T04:39:59.092Z,2.60
2023-05-15T04:42:26.621Z,3.10
2023-05-15T04:44:53.933Z,2.73
2023-05-15T04:47:20.805Z,2.70
2023-05-15T04:49:48.102Z,2.80
2023-05-15T04:52:14.854Z,2.50
2023-05-15T04:54:42.087Z,3.10
2023-05-15T04:57:09.130Z,2.63
2023-05-15T04:59:35.919Z,2.73
2023-05-15T05:02:02.712Z,2.70
2023-05-15T05:04:29.554Z,3.07
2023-05-15T05:06:56.199Z,3.00
2023-05-15T05:09:23.043Z,2.63
2023-05-15T05:11:49.729Z,2.43
2023-05-15T05:14:16.616Z,2.60
2023-05-15T05:16:45.061Z,2.67
2023-05-15T05:19:13.155Z,2.73
2023-05-15T05:21:39.834Z,2.70
2023-05-15T05:24:06.551Z,3.07
2023-05-15T05:26:33.246Z,2.97
2023-05-15T05:28:59.967Z,2.83
2023-05-15T05:31:26.728Z,2.63
2023-05-15T05:33:53.376Z,2.80
2023-05-15T05:36:20.002Z,2.90
2023-05-15T05:38:46.747Z,2.87
2023-05-15T05:41:13.426Z,2.70
2023-05-15T05:43:40.078Z,2.90
2023-05-15T05:46:06.719Z,2.70
2023-05-15T05:48:33.375Z,2.97
2023-05-15T05:51:00.041Z,2.63
2023-05-15T05:53:26.740Z,2.80
2023-05-15T05:55:53.877Z,3.07
2023-05-15T05:58:25.672Z,2.90
2023-05-15T06:00:53.504Z,3.50
2023-05-15T06:03:21.165Z,3.20
2023-05-15T06:05:48.680Z,3.20
2023-05-15T06:08:15.500Z,3.50
2023-05-15T06:10:42.512Z,3.73
2023-05-15T06:13:09.195Z,3.60
2023-05-15T06:15:35.892Z,3.50
2023-05-15T06:18:02.589Z,3.33
2023-05-15T06:20:29.421Z,3.27
2023-05-15T06:22:56.132Z,3.10
2023-05-15T06:25:23.186Z,3.60
2023-05-15T06:27:50.208Z,3.27
2023-05-15T06:30:16.936Z,3.20
2023-05-15T06:32:43.776Z,3.50
2023-05-15T06:35:10.973Z,3.27
2023-05-15T06:37:37.958Z,3.10
2023-05-15T06:40:05.842Z,3.20
2023-05-15T06:42:32.916Z,2.90
2023-05-15T06:44:59.651Z,3.13
2023-05-15T06:47:26.469Z,3.73
2023-05-15T06:49:54.351Z,3.40
2023-05-15T06:52:21.109Z,3.40
2023-05-15T06:54:48.372Z,2.87
2023-05-15T06:57:15.387Z,2.90
2023-05-15T06:59:42.000Z,3.10
2023-05-15T07:02:08.815Z,3.57
2023-05-15T07:04:35.731Z,3.10
2023-05-15T07:07:02.434Z,3.40
2023-05-15T07:09:29.071Z,3.40
2023-05-15T07:11:55.724Z,3.20
2023-05-15T07:14:22.355Z,3.20
2023-05-15T07:16:49.106Z,3.70
2023-05-15T07:19:21.727Z,3.50
2023-05-15T07:21:48.390Z,3.20
2023-05-15T07:24:15.032Z,2.90
2023-05-15T07:26:54.301Z,3.03
2023-05-15T07:29:24.017Z,4.00
2023-05-15T07:31:50.825Z,3.63
2023-05-15T07:34:17.598Z,3.27
2023-05-15T07:36:44.370Z,3.70
2023-05-15T07:39:11.114Z,3.10
2023-05-15T07:41:37.840Z,3.23
2023-05-15T07:44:04.569Z,2.90
2023-05-15T07:46:31.303Z,3.07
2023-05-15T07:48:57.982Z,2.70
2023-05-15T07:51:24.933Z,2.93
2023-05-15T07:53:51.640Z,3.00
2023-05-15T07:56:18.263Z,3.20
2023-05-15T07:58:45.121Z,3.03
2023-05-15T08:01:12.158Z,2.97
2023-05-15T08:03:38.919Z,2.33
2023-05-15T08:06:07.452Z,2.77
2023-05-15T08:08:34.368Z,2.80
2023-05-15T08:11:01.130Z,2.70
2023-05-15T08:13:28.696Z,2.37
2023-05-15T08:15:55.655Z,2.83
2023-05-15T08:18:22.417Z,2.70
2023-05-15T08:20:49.695Z,2.63
2023-05-15T08:23:16.310Z,2.77
2023-05-15T08:25:42.966Z,2.47
2023-05-15T08:28:11.071Z,2.70
2023-05-15T08:30:37.917Z,2.43
2023-05-15T08:33:04.753Z,2.50
2023-05-15T08:35:31.646Z,2.40
2023-05-15T08:37:58.797Z,2.50
2023-05-15T08:43:03.725Z,2.53
2023-05-15T08:45:30.775Z,2.70
2023-05-15T08:47:59.025Z,2.50
2023-05-15T08:50:27.486Z,2.47
2023-05-15T08:52:58.329Z,2.63
2023-05-15T08:55:25.543Z,2.67
2023-05-15T08:57:53.848Z,2.57
2023-05-15T09:01:07.883Z,2.53
2023-05-15T09:03:34.816Z,2.23
2023-05-15T09:06:01.998Z,2.90
2023-05-15T09:08:30.783Z,2.70
2023-05-15T09:10:58.834Z,2.67
2023-05-15T09:13:25.586Z,2.50
2023-05-15T09:15:52.626Z,2.93
2023-05-15T09:18:19.454Z,2.40
2023-05-15T09:20:46.193Z,2.53
2023-05-15T09:23:24.606Z,2.47
2023-05-15T09:25:56.993Z,2.80
2023-05-15T09:28:32.155Z,2.70
2023-05-15T09:31:03.503Z,2.47
2023-05-15T09:33:38.539Z,2.60
2023-05-15T09:36:06.956Z,2.60
2023-05-15T09:38:34.364Z,2.40
2023-05-15T09:41:06.216Z,2.50
2023-05-15T09:43:41.305Z,2.67
2023-05-15T09:46:09.542Z,2.90
2023-05-15T09:48:37.215Z,2.70
2023-05-15T09:51:07.484Z,2.50
2023-05-15T09:53:36.743Z,2.47
2023-05-15T09:56:03.726Z,2.83
2023-05-15T09:58:30.511Z,2.50
2023-05-15T10:01:00.940Z,2.60
2023-05-15T10:03:27.717Z,3.00
2023-05-15T10:06:05.487Z,3.10
2023-05-15T10:08:32.322Z,2.43
2023-05-15T10:11:01.430Z,2.97
2023-05-15T10:13:28.671Z,2.40
2023-05-15T10:15:56.376Z,2.87
2023-05-15T10:18:26.171Z,2.50
2023-05-15T10:20:52.916Z,2.53
2023-05-15T10:23:21.700Z,2.53
2023-05-15T10:26:16.411Z,2.47
2023-05-15T10:28:44.999Z,2.30
2023-05-15T10:31:12.292Z,2.60
2023-05-15T10:33:39.364Z,2.63
2023-05-15T10:36:07.403Z,2.40
2023-05-15T10:38:34.511Z,2.40
2023-05-15T10:41:15.638Z,2.40
2023-05-15T10:43:44.235Z,2.30
2023-05-15T10:46:11.323Z,2.30
2023-05-15T10:48:39.040Z,2.40
2023-05-15T10:51:05.883Z,2.30
2023-05-15T10:53:34.139Z,2.40
2023-05-15T10:56:01.243Z,2.20
2023-05-15T10:58:29.063Z,2.33
2023-05-15T11:00:57.589Z,2.40
2023-05-15T11:03:47.974Z,2.10
2023-05-15T11:06:15.753Z,2.20
2023-05-15T11:08:45.344Z,2.20
2023-05-15T11:11:54.725Z,2.20
2023-05-15T11:14:25.425Z,2.37
2023-05-15T11:16:56.449Z,2.53
2023-05-15T11:19:31.360Z,2.20
2023-05-15T11:22:08.105Z,2.50
2023-05-15T11:24:55.712Z,2.30
2023-05-15T11:27:33.266Z,2.20
2023-05-15T11:30:13.408Z,2.20
2023-05-15T11:32:47.247Z,2.37
2023-05-15T11:35:27.192Z,2.40
2023-05-15T11:38:10.429Z,2.30
2023-05-15T11:40:47.772Z,2.10
2023-05-15T11:43:28.464Z,2.00
2023-05-15T11:45:58.261Z,2.40
2023-05-15T11:48:35.200Z,2.07
2023-05-15T11:51:02.295Z,2.23
2023-05-15T11:53:30.250Z,2.43
2023-05-15T11:55:57.135Z,2.33
2023-05-15T11:58:25.000Z,2.27
2023-05-15T12:00:53.548Z,2.40
2023-05-15T12:03:38.446Z,2.40
2023-05-15T12:06:05.536Z,2.47
2023-05-15T12:08:39.822Z,2.30
2023-05-15T12:11:06.584Z,2.20
2023-05-15T12:13:33.957Z,2.23
2023-05-15T12:16:03.475Z,2.23
2023-05-15T12:18:32.354Z,2.30
2023-05-15T12:20:59.436Z,2.30
2023-05-15T12:23:27.317Z,2.60
2023-05-15T12:26:00.319Z,2.00
2023-05-15T12:28:27.385Z,2.20
2023-05-15T12:30:54.597Z,2.00
2023-05-15T12:33:21.732Z,2.03
2023-05-15T12:35:54.963Z,2.40
2023-05-15T12:38:24.805Z,2.20
2023-05-15T12:40:53.670Z,2.20
2023-05-15T12:43:21.051Z,2.13
2023-05-15T12:45:52.700Z,2.50
2023-05-15T12:48:19.727Z,2.03
2023-05-15T12:50:46.920Z,2.23
2023-05-15T12:53:16.355Z,2.10
2023-05-15T12:55:46.042Z,2.07
2023-05-15T12:58:13.905Z,2.17
2023-05-15T13:00:46.160Z,2.30
2023-05-15T13:03:14.063Z,2.10
2023-05-15T13:05:43.749Z,2.30
2023-05-15T13:08:15.505Z,2.20
2023-05-15T13:10:42.172Z,2.20
2023-05-15T13:13:08.812Z,2.00
2023-05-15T13:15:38.165Z,2.20
2023-05-15T13:18:16.189Z,2.07
2023-05-15T13:20:45.069Z,2.43
2023-05-15T13:23:15.982Z,2.13
2023-05-15T13:25:43.056Z,2.37
2023-05-15T13:28:10.985Z,2.40
2023-05-15T13:30:41.450Z,2.03
2023-05-15T13:33:09.290Z,1.97
2023-05-15T13:35:36.700Z,2.20
2023-05-15T13:38:04.365Z,2.33
2023-05-15T13:40:33.467Z,2.47
2023-05-15T13:43:00.400Z,2.40
2023-05-15T13:45:30.709Z,2.27
2023-05-15T13:48:00.696Z,2.53
2023-05-15T13:50:27.862Z,2.87
2023-05-15T13:52:54.749Z,2.73
2023-05-15T13:55:22.980Z,2.60
2023-05-15T13:57:50.010Z,2.60
2023-05-15T14:00:17.362Z,2.60
2023-05-15T14:02:44.658Z,2.97
2023-05-15T14:05:12.845Z,2.70
2023-05-15T14:07:39.933Z,2.47
2023-05-15T14:10:07.275Z,2.33
2023-05-15T14:12:34.082Z,2.40
2023-05-15T14:15:01.048Z,2.53
2023-05-15T14:17:28.042Z,2.50
2023-05-15T14:19:54.829Z,2.40
2023-05-15T14:22:24.753Z,2.50
2023-05-15T14:24:52.708Z,2.60
2023-05-15T14:27:19.920Z,2.40
2023-05-15T14:29:48.240Z,2.50
2023-05-15T14:32:15.898Z,2.30
2023-05-15T14:34:42.677Z,2.63
2023-05-15T14:37:09.488Z,2.40
2023-05-15T14:39:36.146Z,2.50
2023-05-15T14:42:02.840Z,2.50
2023-05-15T14:44:29.551Z,2.50
2023-05-15T14:47:07.004Z,2.50
2023-05-15T14:49:34.072Z,3.00
2023-05-15T14:52:00.826Z,2.60
2023-05-15T14:54:27.499Z,2.90
2023-05-15T14:56:55.714Z,2.57
2023-05-15T14:59:25.003Z,2.73
2023-05-15T15:01:51.751Z,2.90
2023-05-15T15:04:18.491Z,2.60
2023-05-15T15:06:46.697Z,2.40
2023-05-15T15:09:13.343Z,2.37
2023-05-15T15:11:39.971Z,2.40
2023-05-15T15:14:06.626Z,2.30
2023-05-15T15:16:33.684Z,2.13
2023-05-15T15:19:00.498Z,2.37
2023-05-15T15:21:27.365Z,2.10
2023-05-15T15:23:55.148Z,2.10
2023-05-15T15:26:21.835Z,2.00
2023-05-15T15:28:48.543Z,2.00
2023-05-15T15:31:15.767Z,2.10
2023-05-15T15:33:42.526Z,2.10
2023-05-15T15:36:09.177Z,2.00
2023-05-15T15:38:36.032Z,2.00
2023-05-15T15:41:03.628Z,2.10
2023-05-15T15:43:30.258Z,2.20
2023-05-15T15:45:56.943Z,2.50
2023-05-15T15:48:23.700Z,2.70
2023-05-15T15:50:52.134Z,3.20
2023-05-15T15:53:18.765Z,3.37
2023-05-15T15:55:47.095Z,3.20
2023-05-15T15:58:14.628Z,3.10
2023-05-15T16:00:41.332Z,3.20
2023-05-15T16:03:08.374Z,3.30
2023-05-15T16:05:35.144Z,3.10
2023-05-15T16:08:01.807Z,3.20
2023-05-15T16:10:28.772Z,3.30
2023-05-15T16:12:55.901Z,2.97
2023-05-15T16:15:24.007Z,3.10
2023-05-15T16:17:55.008Z,3.33
2023-05-15T16:20:22.235Z,3.30
2023-05-15T16:22:48.996Z,3.27
2023-05-15T16:25:15.609Z,3.40
2023-05-15T16:27:42.283Z,3.50
2023-05-15T16:30:10.777Z,4.03
2023-05-15T16:32:37.535Z,3.60
2023-05-15T16:35:04.623Z,4.13
2023-05-15T16:37:31.404Z,4.53
2023-05-15T16:39:58.080Z,4.03
2023-05-15T16:42:24.892Z,3.87
2023-05-15T16:44:51.555Z,3.90
2023-05-15T16:47:18.256Z,3.90
2023-05-15T16:49:46.943Z,3.80
2023-05-15T16:52:15.728Z,4.17
2023-05-15T16:54:42.513Z,4.00
2023-05-15T16:57:09.179Z,4.00
2023-05-15T16:59:35.852Z,3.93
2023-05-15T17:02:02.520Z,3.97
2023-05-15T17:04:33.123Z,3.33
2023-05-15T17:06:59.960Z,3.23
2023-05-15T17:09:26.798Z,3.10
2023-05-15T17:11:53.452Z,3.03
2023-05-15T17:14:20.147Z,2.93
2023-05-15T17:16:47.074Z,3.03
2023-05-15T17:19:14.184Z,2.97
2023-05-15T17:21:40.942Z,3.13
2023-05-15T17:24:07.705Z,2.40
2023-05-15T17:26:34.411Z,2.80
2023-05-15T17:29:01.240Z,2.40
2023-05-15T17:31:29.412Z,2.30
2023-05-15T17:33:56.495Z,2.70
2023-05-15T17:36:23.182Z,2.70
2023-05-15T17:38:49.865Z,2.37
2023-05-15T17:41:16.924Z,2.37
2023-05-15T17:43:43.610Z,2.50
2023-05-15T17:46:10.342Z,2.30
2023-05-15T17:48:37.065Z,2.37
2023-05-15T17:51:03.748Z,2.30
2023-05-15T17:53:30.506Z,2.50
2023-05-15T17:55:57.500Z,2.27
2023-05-15T17:58:24.150Z,2.40
2023-05-15T18:00:53.612Z,2.40
2023-05-15T18:03:20.419Z,2.43
2023-05-15T18:05:47.475Z,2.50
2023-05-15T18:08:14.598Z,2.20
2023-05-15T18:10:41.284Z,2.40
2023-05-15T18:13:07.946Z,2.60
2023-05-15T18:15:37.348Z,2.70
2023-05-15T18:18:04.534Z,2.50
2023-05-15T18:20:31.210Z,2.50
2023-05-15T18:22:57.858Z,2.80
2023-05-15T18:25:24.920Z,2.60
2023-05-15T18:27:52.038Z,2.80
2023-05-15T18:30:18.940Z,2.80
2023-05-15T18:32:46.064Z,2.43
2023-05-15T18:35:12.843Z,2.73
2023-05-15T18:37:39.512Z,2.50
2023-05-15T18:40:08.392Z,3.13
2023-05-15T18:42:35.624Z,2.83
2023-05-15T18:45:04.441Z,2.80
2023-05-15T18:47:31.249Z,2.63
2023-05-15T18:49:58.030Z,2.77
2023-05-15T18:52:26.453Z,2.60
2023-05-15T18:54:54.185Z,3.00
2023-05-15T18:57:21.108Z,2.77
2023-05-15T18:59:48.117Z,2.87
2023-05-15T19:02:15.013Z,3.00
2023-05-15T19:04:41.689Z,3.00
2023-05-15T19:07:08.384Z,2.63
2023-05-15T19:09:35.439Z,2.80
2023-05-15T19:12:02.860Z,2.77
2023-05-15T19:14:29.579Z,2.97
2023-05-15T19:16:56.388Z,2.90
2023-05-15T19:19:23.527Z,2.90
2023-05-15T19:21:51.977Z,3.00
2023-05-15T19:24:19.753Z,3.10
2023-05-15T19:26:46.473Z,2.80
2023-05-15T19:29:13.147Z,3.20
2023-05-15T19:31:40.044Z,3.00
2023-05-15T19:34:07.245Z,2.77
2023-05-15T19:36:34.125Z,3.00
2023-05-15T19:39:00.788Z,2.93
2023-05-15T19:41:27.530Z,3.00
2023-05-15T19:43:54.190Z,3.07
2023-05-15T19:46:21.009Z,3.00
2023-05-15T19:48:47.696Z,3.40
2023-05-15T19:51:14.646Z,3.37
2023-05-15T19:53:41.530Z,3.90
2023-05-15T19:56:08.356Z,3.80
2023-05-15T19:58:35.051Z,4.10
2023-05-15T20:01:01.746Z,3.90
2023-05-15T20:03:33.187Z,3.90
2023-05-15T20:06:01.220Z,4.00
2023-05-15T20:08:28.117Z,4.10
2023-05-15T20:10:54.932Z,3.80
2023-05-15T20:13:22.380Z,3.97
2023-05-15T20:15:56.947Z,4.03
2023-05-15T20:18:28.080Z,4.07
2023-05-15T20:20:54.768Z,4.40
2023-05-15T20:23:21.819Z,4.60
2023-05-15T20:25:49.835Z,3.90
2023-05-15T20:28:17.783Z,4.10
2023-05-15T20:30:47.391Z,3.70
2023-05-15T20:33:14.356Z,3.70
2023-05-15T20:35:42.731Z,3.70
2023-05-15T20:38:10.488Z,3.43
2023-05-15T20:40:37.736Z,3.63
2023-05-15T20:43:05.782Z,3.40
2023-05-15T20:45:32.607Z,3.60
2023-05-15T20:47:59.426Z,3.30
2023-05-15T20:50:26.364Z,3.43
2023-05-15T20:52:53.341Z,3.03
2023-05-15T20:55:21.548Z,3.20
2023-05-15T20:57:49.185Z,3.30
2023-05-15T21:00:16.905Z,3.40
2023-05-15T21:02:47.991Z,3.43
2023-05-15T21:05:14.965Z,3.13
2023-05-15T21:07:41.646Z,3.10
2023-05-15T21:10:09.096Z,3.30
2023-05-15T21:12:35.922Z,3.57
2023-05-15T21:15:02.919Z,3.30
2023-05-15T21:17:29.733Z,3.20
2023-05-15T21:19:58.512Z,3.40
2023-05-15T21:22:25.347Z,3.60
2023-05-15T21:24:52.043Z,3.27
2023-05-15T21:27:18.820Z,3.13
2023-05-15T21:29:45.880Z,3.30
2023-05-15T21:32:12.773Z,3.43
2023-05-15T21:34:39.547Z,3.30
2023-05-15T21:37:06.381Z,3.60
2023-05-15T21:39:33.027Z,3.33
2023-05-15T21:41:59.675Z,3.50
2023-05-15T21:44:26.391Z,3.87
2023-05-15T21:46:53.381Z,3.40
2023-05-15T21:49:20.227Z,3.63
2023-05-15T21:51:46.896Z,3.60
2023-05-15T21:54:13.648Z,3.50
2023-05-15T21:56:41.182Z,3.80
2023-05-15T21:59:08.080Z,3.80
2023-05-15T22:01:36.140Z,3.67
2023-05-15T22:04:03.125Z,3.80
2023-05-15T22:06:29.916Z,3.80
2023-05-15T22:08:57.533Z,3.80
2023-05-15T22:11:24.327Z,3.60
2023-05-15T22:13:51.096Z,3.73
2023-05-15T22:16:19.123Z,3.87
2023-05-15T22:18:48.997Z,3.80
2023-05-15T22:21:19.214Z,3.53
2023-05-15T22:23:46.194Z,3.60
2023-05-15T22:26:12.972Z,3.90
2023-05-15T22:28:39.605Z,4.03
2023-05-15T22:31:06.339Z,4.20
2023-05-15T22:33:33.155Z,4.07
2023-05-15T22:35:59.794Z,3.80
2023-05-15T22:38:26.657Z,3.90
2023-05-15T22:40:53.829Z,3.77
2023-05-15T22:43:22.717Z,4.20
2023-05-15T22:45:49.585Z,4.30
2023-05-15T22:48:17.081Z,3.37
2023-05-15T22:50:44.674Z,3.80
2023-05-15T22:53:11.556Z,3.97
2023-05-15T22:55:38.224Z,3.40
2023-05-15T22:58:05.247Z,3.80
2023-05-15T23:00:32.717Z,3.80
2023-05-15T23:02:59.484Z,3.77
2023-05-15T23:05:27.500Z,4.07
2023-05-15T23:07:54.151Z,3.70
2023-05-15T23:10:21.016Z,3.87
2023-05-15T23:12:48.042Z,3.70
2023-05-15T23:15:14.710Z,4.30
2023-05-15T23:17:41.585Z,3.60
2023-05-15T23:20:12.690Z,3.97
2023-05-15T23:22:39.501Z,3.80
2023-05-15T23:25:07.421Z,4.20
2023-05-15T23:27:34.227Z,3.70
2023-05-15T23:30:01.128Z,3.80
2023-05-15T23:32:27.828Z,3.80
2023-05-15T23:34:54.557Z,4.10
2023-05-15T23:37:21.315Z,3.90
2023-05-15T23:39:48.036Z,4.37
2023-05-15T23:42:15.183Z,4.13
2023-05-15T23:44:41.850Z,3.90
2023-05-15T23:47:08.623Z,4.47
2023-05-15T23:49:35.767Z,4.13
2023-05-15T23:52:02.466Z,4.00
2023-05-15T23:54:29.517Z,4.30
2023-05-15T23:56:56.178Z,4.30
2023-05-15T23:59:22.832Z,3.90
